createdAt,value
2023-02-08T00:00:49.963Z,3
2023-02-08T00:01:49.968Z,3
2023-02-08T00:02:50.013Z,3
2023-02-08T00:03:49.988Z,3
2023-02-08T00:04:50.246Z,3
2023-02-08T00:05:49.965Z,3
2023-02-08T00:06:49.965Z,3
2023-02-08T00:07:49.960Z,3
2023-02-08T00:08:49.969Z,3
2023-02-08T00:09:49.973Z,3
2023-02-08T00:10:49.952Z,3
2023-02-08T00:11:49.956Z,3
2023-02-08T00:12:49.964Z,3.1
2023-02-08T00:13:49.977Z,3
2023-02-08T00:14:49.965Z,3
2023-02-08T00:15:50.007Z,3
2023-02-08T00:16:49.981Z,3.1
2023-02-08T00:17:49.989Z,3.1
2023-02-08T00:18:49.961Z,3.1
2023-02-08T00:19:49.965Z,3.1
2023-02-08T00:20:49.970Z,3.1
2023-02-08T00:21:49.969Z,3.1
2023-02-08T00:22:51.569Z,3.1
2023-02-08T00:23:49.966Z,3.1
2023-02-08T00:24:49.956Z,3.1
2023-02-08T00:25:49.950Z,3.1
2023-02-08T00:26:49.972Z,3.1
2023-02-08T00:27:50.010Z,3.1
2023-02-08T00:28:49.962Z,3.1
2023-02-08T00:29:49.956Z,3
2023-02-08T00:30:50.000Z,3.1
2023-02-08T00:31:50.015Z,3.1
2023-02-08T00:32:49.975Z,3.1
2023-02-08T00:33:49.965Z,3.1
2023-02-08T00:35:49.960Z,3.1
2023-02-08T00:36:49.964Z,3.1
2023-02-08T00:37:49.970Z,3.1
2023-02-08T00:38:49.955Z,3.1
2023-02-08T00:39:49.958Z,3.1
2023-02-08T00:40:49.967Z,3.1
2023-02-08T00:41:49.955Z,3.1
2023-02-08T00:42:49.954Z,3.1
2023-02-08T00:43:49.951Z,3.1
2023-02-08T00:44:49.951Z,3.1
2023-02-08T00:45:49.961Z,3.1
2023-02-08T00:46:49.982Z,3.1
2023-02-08T00:47:49.973Z,3.1
2023-02-08T00:48:49.957Z,3.1
2023-02-08T00:49:49.953Z,3.1
2023-02-08T00:50:49.946Z,3.1
2023-02-08T00:51:49.950Z,3.1
2023-02-08T00:52:49.962Z,3.1
2023-02-08T00:53:49.944Z,3.1
2023-02-08T00:54:49.965Z,3.1
2023-02-08T00:55:49.945Z,3.1
2023-02-08T00:56:50.063Z,3.1
2023-02-08T00:57:49.950Z,3.1
2023-02-08T00:58:50.021Z,3.1
2023-02-08T00:59:49.946Z,3.1
2023-02-08T01:00:49.975Z,3.1
2023-02-08T01:01:49.952Z,3.1
2023-02-08T01:02:50.052Z,3.1
2023-02-08T01:03:50.007Z,3.1
2023-02-08T01:04:49.944Z,3.1
2023-02-08T01:05:49.960Z,3.1
2023-02-08T01:06:49.950Z,3.1
2023-02-08T01:07:49.940Z,3.1
2023-02-08T01:08:49.950Z,3.1
2023-02-08T01:09:49.954Z,3.1
2023-02-08T01:10:49.954Z,3.1
2023-02-08T01:11:49.954Z,3.1
2023-02-08T01:12:49.959Z,3.1
2023-02-08T01:13:49.955Z,3.1
2023-02-08T01:14:50.250Z,3.1
2023-02-08T01:15:49.948Z,3.1
2023-02-08T01:16:49.939Z,3.1
2023-02-08T01:17:49.942Z,3.1
2023-02-08T01:18:49.973Z,3.1
2023-02-08T01:19:49.936Z,3.1
2023-02-08T01:20:50.071Z,3.1
2023-02-08T01:21:49.952Z,3.1
2023-02-08T01:22:49.951Z,3.1
2023-02-08T01:23:49.946Z,3.1
2023-02-08T01:24:49.947Z,3.1
2023-02-08T01:25:49.933Z,3.1
2023-02-08T01:26:49.945Z,3.2
2023-02-08T01:27:49.967Z,3.1
2023-02-08T01:28:49.954Z,3.2
2023-02-08T01:29:49.934Z,3.2
2023-02-08T01:30:50.003Z,3.2
2023-02-08T01:31:50.102Z,3.2
2023-02-08T01:32:49.950Z,3.2
2023-02-08T01:33:49.964Z,3.2
2023-02-08T01:34:49.944Z,3.2
2023-02-08T01:35:50.003Z,3.2
2023-02-08T01:36:49.955Z,3.2
2023-02-08T01:37:49.954Z,3.2
2023-02-08T01:38:49.949Z,3.2
2023-02-08T01:39:49.941Z,3.2
2023-02-08T01:40:49.952Z,3.2
2023-02-08T01:41:49.950Z,3.2
2023-02-08T01:42:49.945Z,3.2
2023-02-08T01:43:49.945Z,3.2
2023-02-08T01:44:49.950Z,3.2
2023-02-08T01:45:49.939Z,3.2
2023-02-08T01:46:49.939Z,3.1
2023-02-08T01:47:49.952Z,3.2
2023-02-08T01:48:49.936Z,3.2
2023-02-08T01:49:49.965Z,3.2
2023-02-08T01:50:49.948Z,3.2
2023-02-08T01:51:49.942Z,3.1
2023-02-08T01:52:49.968Z,3.1
2023-02-08T01:53:49.941Z,3.1
2023-02-08T01:54:49.952Z,3.1
2023-02-08T01:55:49.944Z,3.1
2023-02-08T01:56:49.931Z,3.1
2023-02-08T01:57:49.932Z,3.2
2023-02-08T01:58:49.923Z,3.1
2023-02-08T01:59:49.943Z,3.2
2023-02-08T02:00:49.983Z,3.2
2023-02-08T02:01:49.981Z,3.2
2023-02-08T02:02:49.937Z,3.2
2023-02-08T02:03:50.177Z,3.2
2023-02-08T02:04:49.936Z,3.2
2023-02-08T02:05:49.932Z,3.2
2023-02-08T02:06:49.975Z,3.3
2023-02-08T02:07:49.934Z,3.3
2023-02-08T02:08:49.969Z,3.2
2023-02-08T02:09:49.941Z,3.3
2023-02-08T02:10:49.930Z,3.3
2023-02-08T02:11:49.993Z,3.2
2023-02-08T02:12:49.956Z,3.2
2023-02-08T02:13:49.934Z,3.2
2023-02-08T02:14:49.927Z,3.2
2023-02-08T02:15:49.942Z,3.2
2023-02-08T02:16:49.992Z,3.2
2023-02-08T02:17:49.925Z,3.2
2023-02-08T02:18:49.924Z,3.2
2023-02-08T02:19:49.932Z,3.2
2023-02-08T02:20:49.972Z,3.2
2023-02-08T02:21:49.932Z,3.2
2023-02-08T02:22:49.963Z,3.2
2023-02-08T02:23:49.943Z,3.2
2023-02-08T02:24:49.941Z,3.2
2023-02-08T02:25:49.930Z,3.2
2023-02-08T02:26:49.925Z,3.2
2023-02-08T02:27:49.967Z,3.2
2023-02-08T02:28:49.934Z,3.2
2023-02-08T02:29:49.935Z,3.2
2023-02-08T02:30:49.967Z,3.2
2023-02-08T02:31:49.985Z,3.2
2023-02-08T02:32:49.934Z,3.2
2023-02-08T02:33:49.917Z,3.2
2023-02-08T02:34:49.918Z,3.2
2023-02-08T02:35:49.982Z,3.2
2023-02-08T02:36:49.937Z,3.2
2023-02-08T02:37:49.936Z,3.2
2023-02-08T02:38:49.929Z,3.2
2023-02-08T02:39:49.923Z,3.2
2023-02-08T02:40:49.964Z,3.3
2023-02-08T02:41:49.944Z,3.2
2023-02-08T02:42:49.942Z,3.2
2023-02-08T02:43:49.930Z,3.2
2023-02-08T02:44:49.925Z,3.2
2023-02-08T02:45:49.973Z,3.2
2023-02-08T02:46:49.912Z,3.2
2023-02-08T02:47:49.925Z,3.2
2023-02-08T02:48:49.921Z,3.3
2023-02-08T02:49:49.931Z,3.2
2023-02-08T02:50:49.922Z,3.3
2023-02-08T02:51:49.979Z,3.3
2023-02-08T02:52:49.931Z,3.3
2023-02-08T02:53:50.059Z,3.3
2023-02-08T02:54:49.934Z,3.3
2023-02-08T02:55:49.940Z,3.3
2023-02-08T02:56:49.919Z,3.2
2023-02-08T02:57:49.932Z,3.3
2023-02-08T02:58:49.969Z,3.3
2023-02-08T02:59:49.924Z,3.3
2023-02-08T03:00:50.047Z,3.3
2023-02-08T03:01:49.952Z,3.3
2023-02-08T03:02:49.938Z,3.3
2023-02-08T03:03:49.931Z,3.3
2023-02-08T03:04:49.937Z,3.3
2023-02-08T03:05:49.960Z,3.3
2023-02-08T03:06:49.921Z,3.3
2023-02-08T03:07:49.929Z,3.3
2023-02-08T03:08:49.924Z,3.3
2023-02-08T03:09:49.928Z,3.3
2023-02-08T03:10:49.955Z,3.3
2023-02-08T03:11:49.939Z,3.3
2023-02-08T03:12:49.932Z,3.3
2023-02-08T03:13:49.937Z,3.3
2023-02-08T03:14:49.926Z,3.3
2023-02-08T03:15:49.962Z,3.3
2023-02-08T03:16:50.023Z,3.3
2023-02-08T03:17:49.933Z,3.3
2023-02-08T03:18:49.924Z,3.3
2023-02-08T03:19:49.955Z,3.3
2023-02-08T03:20:49.919Z,3.4
2023-02-08T03:21:49.934Z,3.3
2023-02-08T03:22:49.954Z,3.4
2023-02-08T03:23:49.917Z,3.3
2023-02-08T03:24:49.929Z,3.3
2023-02-08T03:25:49.926Z,3.3
2023-02-08T03:26:49.920Z,3.3
2023-02-08T03:27:49.967Z,3.3
2023-02-08T03:28:49.929Z,3.4
2023-02-08T03:29:49.961Z,3.4
2023-02-08T03:30:50.107Z,3.3
2023-02-08T03:31:50.055Z,3.3
2023-02-08T03:32:49.949Z,3.3
2023-02-08T03:33:49.924Z,3.4
2023-02-08T03:34:49.929Z,3.3
2023-02-08T03:35:49.932Z,3.3
2023-02-08T03:36:49.937Z,3.2
2023-02-08T03:37:49.923Z,3.2
2023-02-08T03:38:49.925Z,3.2
2023-02-08T03:39:49.928Z,3.3
2023-02-08T03:40:49.915Z,3.2
2023-02-08T03:41:49.918Z,3.2
2023-02-08T03:42:49.935Z,3.2
2023-02-08T03:43:49.929Z,3.3
2023-02-08T03:44:49.925Z,3.3
2023-02-08T03:45:49.958Z,3.3
2023-02-08T03:46:49.933Z,3.3
2023-02-08T03:47:49.961Z,3.2
2023-02-08T03:48:49.914Z,3.2
2023-02-08T03:49:49.922Z,3.2
2023-02-08T03:50:49.915Z,3.2
2023-02-08T03:51:49.927Z,3.2
2023-02-08T03:52:49.926Z,3.2
2023-02-08T03:53:49.937Z,3.2
2023-02-08T03:54:49.919Z,3.2
2023-02-08T03:55:49.914Z,3.2
2023-02-08T03:56:49.917Z,3.2
2023-02-08T03:57:49.998Z,3.2
2023-02-08T03:58:49.917Z,3.2
2023-02-08T03:59:49.985Z,3.2
2023-02-08T04:00:49.914Z,3.2
2023-02-08T04:01:49.920Z,3.3
2023-02-08T04:02:50.008Z,3.2
2023-02-08T04:03:49.905Z,3.3
2023-02-08T04:04:49.924Z,3.3
2023-02-08T04:05:49.929Z,3.3
2023-02-08T04:06:50.091Z,3.3
2023-02-08T04:07:49.918Z,3.3
2023-02-08T04:08:49.913Z,3.2
2023-02-08T04:09:49.907Z,3.2
2023-02-08T04:10:49.925Z,3.2
2023-02-08T04:11:49.909Z,3.2
2023-02-08T04:12:49.926Z,3.2
2023-02-08T04:13:49.905Z,3.2
2023-02-08T04:14:49.912Z,3.2
2023-02-08T04:15:49.995Z,3.2
2023-02-08T04:16:49.910Z,3.2
2023-02-08T04:17:49.923Z,3.2
2023-02-08T04:18:49.909Z,3.2
2023-02-08T04:19:49.908Z,3.2
2023-02-08T04:20:49.916Z,3.2
2023-02-08T04:21:49.902Z,3.2
2023-02-08T04:22:49.918Z,3.2
2023-02-08T04:23:49.916Z,3.2
2023-02-08T04:24:49.932Z,3.2
2023-02-08T04:25:49.904Z,3.2
2023-02-08T04:26:49.897Z,3.2
2023-02-08T04:27:49.936Z,3.2
2023-02-08T04:28:49.916Z,3.2
2023-02-08T04:29:49.899Z,3.2
2023-02-08T04:30:50.028Z,3.2
2023-02-08T04:31:49.950Z,3.2
2023-02-08T04:32:49.971Z,3.2
2023-02-08T04:33:49.922Z,3.2
2023-02-08T04:34:49.915Z,3.1
2023-02-08T04:35:49.906Z,3.1
2023-02-08T04:36:49.911Z,3.1
2023-02-08T04:37:49.919Z,3.1
2023-02-08T04:38:49.903Z,3.1
2023-02-08T04:39:49.931Z,3.2
2023-02-08T04:40:49.939Z,3.2
2023-02-08T04:41:49.914Z,3.1
2023-02-08T04:42:49.915Z,3.1
2023-02-08T04:43:49.899Z,3.1
2023-02-08T04:44:49.919Z,3.1
2023-02-08T04:45:49.913Z,3.1
2023-02-08T04:46:49.922Z,3.1
2023-02-08T04:47:49.917Z,3.1
2023-02-08T04:48:49.906Z,3.1
2023-02-08T04:49:49.920Z,3.1
2023-02-08T04:50:49.898Z,3
2023-02-08T04:51:49.894Z,3.1
2023-02-08T04:52:49.946Z,3.1
2023-02-08T04:53:49.911Z,3
2023-02-08T04:54:50.022Z,3.1
2023-02-08T04:55:49.932Z,3.1
2023-02-08T04:56:50.038Z,3.1
2023-02-08T04:57:49.918Z,3.1
2023-02-08T04:58:49.911Z,3.1
2023-02-08T04:59:49.910Z,3.1
2023-02-08T05:00:49.934Z,3
2023-02-08T05:01:49.991Z,3
2023-02-08T05:02:49.911Z,3.1
2023-02-08T05:03:49.961Z,3.1
2023-02-08T05:04:49.938Z,3
2023-02-08T05:05:49.938Z,3
2023-02-08T05:06:49.901Z,3.1
2023-02-08T05:07:49.904Z,3
2023-02-08T05:08:49.961Z,3
2023-02-08T05:09:49.901Z,3
2023-02-08T05:10:49.900Z,3
2023-02-08T05:11:49.904Z,3
2023-02-08T05:12:49.892Z,3
2023-02-08T05:13:49.901Z,3
2023-02-08T05:14:49.901Z,3
2023-02-08T05:15:49.913Z,3
2023-02-08T05:16:49.904Z,3
2023-02-08T05:17:49.892Z,3.1
2023-02-08T05:18:50.095Z,3
2023-02-08T05:19:49.899Z,3
2023-02-08T05:20:49.902Z,3
2023-02-08T05:21:49.889Z,3
2023-02-08T05:22:49.913Z,3
2023-02-08T05:23:49.902Z,3.1
2023-02-08T05:24:49.906Z,3.1
2023-02-08T05:25:49.937Z,3
2023-02-08T05:26:49.919Z,3
2023-02-08T05:27:49.971Z,3.1
2023-02-08T05:28:49.893Z,3.1
2023-02-08T05:29:49.912Z,3.1
2023-02-08T05:30:49.978Z,3.1
2023-02-08T05:31:49.958Z,3.1
2023-02-08T05:32:49.898Z,3.1
2023-02-08T05:33:49.900Z,3.1
2023-02-08T05:34:49.902Z,3.2
2023-02-08T05:35:49.899Z,3.2
2023-02-08T05:36:49.893Z,3.1
2023-02-08T05:37:49.885Z,3.1
2023-02-08T05:38:49.884Z,3.1
2023-02-08T05:39:49.887Z,3.1
2023-02-08T05:40:49.890Z,3.1
2023-02-08T05:41:49.886Z,3.1
2023-02-08T05:42:49.881Z,3.1
2023-02-08T05:43:49.909Z,3.2
2023-02-08T05:44:49.905Z,3.1
2023-02-08T05:45:49.874Z,3.2
2023-02-08T05:46:49.917Z,3.2
2023-02-08T05:47:49.930Z,3.2
2023-02-08T05:48:49.893Z,3.2
2023-02-08T05:49:49.878Z,3.2
2023-02-08T05:50:49.904Z,3.2
2023-02-08T05:51:49.882Z,3.2
2023-02-08T05:52:49.904Z,3.1
2023-02-08T05:53:49.906Z,3.1
2023-02-08T05:54:49.885Z,3
2023-02-08T05:55:49.889Z,3.1
2023-02-08T05:56:49.918Z,3
2023-02-08T05:57:49.907Z,3
2023-02-08T05:58:49.898Z,3
2023-02-08T05:59:50.200Z,3
2023-02-08T06:00:49.902Z,3
2023-02-08T06:01:49.893Z,3
2023-02-08T06:02:49.943Z,3
2023-02-08T06:03:49.922Z,3
2023-02-08T06:04:49.872Z,3
2023-02-08T06:05:49.880Z,3
2023-02-08T06:06:49.889Z,3
2023-02-08T06:07:49.919Z,3
2023-02-08T06:08:49.885Z,3
2023-02-08T06:09:49.878Z,3
2023-02-08T06:10:49.878Z,3
2023-02-08T06:11:49.885Z,3
2023-02-08T06:12:49.951Z,3
2023-02-08T06:13:49.885Z,3
2023-02-08T06:14:49.888Z,2.9
2023-02-08T06:15:49.889Z,2.9
2023-02-08T06:16:50.007Z,3
2023-02-08T06:17:49.883Z,3
2023-02-08T06:18:49.983Z,3
2023-02-08T06:19:49.880Z,3
2023-02-08T06:20:49.877Z,2.9
2023-02-08T06:21:49.871Z,3
2023-02-08T06:22:49.873Z,3
2023-02-08T06:23:49.868Z,3
2023-02-08T06:24:49.872Z,3
2023-02-08T06:25:49.873Z,3
2023-02-08T06:26:49.893Z,3
2023-02-08T06:27:49.953Z,3
2023-02-08T06:28:49.908Z,3
2023-02-08T06:29:49.879Z,2.9
2023-02-08T06:30:49.910Z,3
2023-02-08T06:31:50.050Z,3
2023-02-08T06:32:49.887Z,3
2023-02-08T06:33:49.870Z,3.1
2023-02-08T06:34:49.931Z,3
2023-02-08T06:35:49.877Z,3
2023-02-08T06:36:49.881Z,3
2023-02-08T06:37:49.890Z,3.1
2023-02-08T06:38:51.346Z,3.1
2023-02-08T06:39:49.865Z,3
2023-02-08T06:40:49.871Z,3.1
2023-02-08T06:41:49.895Z,3
2023-02-08T06:42:49.870Z,2.9
2023-02-08T06:43:49.888Z,2.9
2023-02-08T06:44:55.149Z,3
2023-02-08T06:45:49.882Z,3
2023-02-08T06:46:49.874Z,3
2023-02-08T06:47:49.868Z,2.9
2023-02-08T06:48:49.871Z,2.9
2023-02-08T06:49:49.896Z,2.9
2023-02-08T06:50:49.870Z,2.9
2023-02-08T06:51:49.877Z,3
2023-02-08T06:52:49.881Z,3
2023-02-08T06:53:49.871Z,2.9
2023-02-08T06:54:49.865Z,3
2023-02-08T06:55:49.866Z,3.1
2023-02-08T06:56:49.912Z,3
2023-02-08T06:57:49.864Z,3.1
2023-02-08T06:58:49.876Z,3.1
2023-02-08T06:59:56.175Z,3.1
2023-02-08T07:00:49.912Z,3.1
2023-02-08T07:01:49.891Z,3.1
2023-02-08T07:02:49.871Z,3.1
2023-02-08T07:03:49.890Z,3.1
2023-02-08T07:04:49.883Z,3.1
2023-02-08T07:06:04.124Z,3.2
2023-02-08T07:06:49.901Z,3.2
2023-02-08T07:07:49.974Z,3.2
2023-02-08T07:08:49.863Z,3.2
2023-02-08T07:09:49.890Z,3.2
2023-02-08T07:10:49.872Z,3.2
2023-02-08T07:11:49.880Z,3.2
2023-02-08T07:12:49.876Z,3.2
2023-02-08T07:13:49.862Z,3.2
2023-02-08T07:14:49.905Z,3.2
2023-02-08T07:15:49.877Z,3.2
2023-02-08T07:16:49.922Z,3.2
2023-02-08T07:17:49.870Z,3.2
2023-02-08T07:18:49.889Z,3.2
2023-02-08T07:19:49.903Z,3.2
2023-02-08T07:20:49.868Z,3.2
2023-02-08T07:21:49.863Z,3.2
2023-02-08T07:22:49.871Z,3.2
2023-02-08T07:23:49.873Z,3.2
2023-02-08T07:24:49.879Z,3.2
2023-02-08T07:25:49.870Z,3.2
2023-02-08T07:26:49.868Z,3.2
2023-02-08T07:27:49.926Z,3.3
2023-02-08T07:28:49.921Z,3.3
2023-02-08T07:29:49.856Z,3.3
2023-02-08T07:30:49.874Z,3.3
2023-02-08T07:31:49.940Z,3.3
2023-02-08T07:32:49.868Z,3.3
2023-02-08T07:33:49.875Z,3.3
2023-02-08T07:34:49.863Z,3.3
2023-02-08T07:35:49.870Z,3.2
2023-02-08T07:36:49.870Z,3.2
2023-02-08T07:37:49.871Z,3.2
2023-02-08T07:38:49.865Z,3.2
2023-02-08T07:39:49.869Z,3.2
2023-02-08T07:40:49.869Z,3.2
2023-02-08T07:41:49.866Z,3.2
2023-02-08T07:42:49.859Z,3.2
2023-02-08T07:43:49.882Z,3.2
2023-02-08T07:44:49.883Z,3.2
2023-02-08T07:45:49.955Z,3.2
2023-02-08T07:46:49.860Z,3.2
2023-02-08T07:47:49.871Z,3.2
2023-02-08T07:48:49.875Z,3.2
2023-02-08T07:49:49.859Z,3.2
2023-02-08T07:50:49.957Z,3.2
2023-02-08T07:51:49.862Z,3.1
2023-02-08T07:52:49.871Z,3.2
2023-02-08T07:53:49.862Z,3.1
2023-02-08T07:54:49.854Z,3.1
2023-02-08T07:55:49.881Z,3.1
2023-02-08T07:56:49.860Z,3.1
2023-02-08T07:57:49.874Z,3.1
2023-02-08T07:58:49.860Z,3.1
2023-02-08T07:59:43.669Z,3.1
2023-02-08T08:00:49.869Z,3.1
2023-02-08T08:01:49.950Z,3.1
2023-02-08T08:02:49.856Z,3.1
2023-02-08T08:03:49.978Z,3.1
2023-02-08T08:04:49.860Z,3.1
2023-02-08T08:05:52.589Z,3.1
2023-02-08T08:06:49.867Z,3.1
2023-02-08T08:07:49.871Z,3.1
2023-02-08T08:08:49.865Z,3.1
2023-02-08T08:09:49.858Z,3.1
2023-02-08T08:10:49.865Z,3.1
2023-02-08T08:11:49.860Z,3.1
2023-02-08T08:12:49.879Z,3
2023-02-08T08:13:49.864Z,3
2023-02-08T08:14:49.869Z,3
2023-02-08T08:15:49.858Z,3
2023-02-08T08:16:49.883Z,3
2023-02-08T08:17:49.867Z,3
2023-02-08T08:18:49.864Z,3
2023-02-08T08:19:49.868Z,3
2023-02-08T08:20:49.861Z,3
2023-02-08T08:21:49.855Z,3
2023-02-08T08:22:49.867Z,3
2023-02-08T08:23:49.869Z,3
2023-02-08T08:24:49.862Z,2.9
2023-02-08T08:25:49.859Z,3
2023-02-08T08:26:49.866Z,3
2023-02-08T08:27:49.915Z,3
2023-02-08T08:28:49.972Z,3
2023-02-08T08:29:49.870Z,2.9
2023-02-08T08:30:49.993Z,2.9
2023-02-08T08:31:49.906Z,2.9
2023-02-08T08:32:49.851Z,2.9
2023-02-08T08:33:49.854Z,2.9
2023-02-08T08:34:49.857Z,2.9
2023-02-08T08:35:49.856Z,2.9
2023-02-08T08:36:49.860Z,2.9
2023-02-08T08:37:49.859Z,2.9
2023-02-08T08:38:49.854Z,2.9
2023-02-08T08:39:49.863Z,2.9
2023-02-08T08:40:49.874Z,2.9
2023-02-08T08:41:49.852Z,2.9
2023-02-08T08:42:49.851Z,2.9
2023-02-08T08:43:49.855Z,2.9
2023-02-08T08:44:49.859Z,2.9
2023-02-08T08:45:51.600Z,2.9
2023-02-08T08:46:49.858Z,2.9
2023-02-08T08:47:49.958Z,2.9
2023-02-08T08:48:49.878Z,2.9
2023-02-08T08:49:49.861Z,2.9
2023-02-08T08:50:49.861Z,2.9
2023-02-08T08:51:49.862Z,2.9
2023-02-08T08:52:49.866Z,2.9
2023-02-08T08:53:49.855Z,2.9
2023-02-08T08:54:49.850Z,2.9
2023-02-08T08:55:49.853Z,2.9
2023-02-08T08:56:50.000Z,2.9
2023-02-08T08:57:49.914Z,3
2023-02-08T08:58:49.853Z,3
2023-02-08T08:59:49.856Z,3
2023-02-08T09:00:49.854Z,3
2023-02-08T09:01:49.855Z,3
2023-02-08T09:02:49.910Z,3
2023-02-08T09:03:49.849Z,3
2023-02-08T09:04:49.894Z,3
2023-02-08T09:05:49.846Z,3
2023-02-08T09:06:49.853Z,3
2023-02-08T09:07:49.868Z,3
2023-02-08T09:08:51.770Z,3
2023-02-08T09:09:49.862Z,3
2023-02-08T09:10:49.849Z,3
2023-02-08T09:11:49.830Z,3
2023-02-08T09:12:49.923Z,2.9
2023-02-08T09:13:49.848Z,3
2023-02-08T09:14:49.845Z,3
2023-02-08T09:15:49.902Z,3
2023-02-08T09:16:49.854Z,2.9
2023-02-08T09:17:49.859Z,3
2023-02-08T09:18:49.953Z,2.9
2023-02-08T09:19:49.847Z,3
2023-02-08T09:20:49.841Z,3
2023-02-08T09:21:49.840Z,3
2023-02-08T09:22:49.876Z,2.9
2023-02-08T09:23:49.867Z,2.9
2023-02-08T09:24:49.853Z,2.9
2023-02-08T09:25:50.213Z,2.8
2023-02-08T09:26:49.851Z,2.9
2023-02-08T09:27:49.914Z,2.9
2023-02-08T09:28:49.854Z,2.9
2023-02-08T09:29:49.836Z,2.9
2023-02-08T09:30:49.884Z,2.9
2023-02-08T09:31:49.918Z,2.9
2023-02-08T09:32:49.846Z,2.9
2023-02-08T09:33:49.851Z,2.9
2023-02-08T09:34:49.841Z,2.9
2023-02-08T09:35:49.847Z,2.9
2023-02-08T09:36:49.856Z,2.9
2023-02-08T09:37:49.838Z,2.9
2023-02-08T09:38:49.858Z,2.9
2023-02-08T09:39:49.851Z,2.9
2023-02-08T09:40:49.838Z,2.9
2023-02-08T09:41:49.845Z,2.8
2023-02-08T09:42:49.842Z,2.9
2023-02-08T09:43:49.883Z,2.9
2023-02-08T09:44:49.853Z,2.9
2023-02-08T09:45:59.217Z,3
2023-02-08T09:46:49.877Z,2.9
2023-02-08T09:47:49.847Z,2.9
2023-02-08T09:48:49.851Z,2.9
2023-02-08T09:49:49.882Z,2.9
2023-02-08T09:50:49.841Z,2.9
2023-02-08T09:51:49.845Z,2.9
2023-02-08T09:52:49.849Z,2.9
2023-02-08T09:53:49.842Z,2.9
2023-02-08T09:54:49.840Z,2.8
2023-02-08T09:55:49.883Z,2.9
2023-02-08T09:56:49.836Z,2.8
2023-02-08T09:57:49.856Z,2.9
2023-02-08T09:58:49.870Z,2.9
2023-02-08T09:59:49.848Z,2.9
2023-02-08T10:00:49.911Z,2.9
2023-02-08T10:01:49.844Z,2.8
2023-02-08T10:02:49.856Z,2.9
2023-02-08T10:03:49.859Z,2.8
2023-02-08T10:04:49.890Z,2.9
2023-02-08T10:05:49.841Z,2.8
2023-02-08T10:06:50.291Z,2.8
2023-02-08T10:07:49.852Z,2.8
2023-02-08T10:08:49.862Z,2.7
2023-02-08T10:09:49.848Z,2.8
2023-02-08T10:10:49.849Z,2.8
2023-02-08T10:11:49.849Z,2.8
2023-02-08T10:12:49.913Z,2.7
2023-02-08T10:13:49.856Z,2.7
2023-02-08T10:14:49.845Z,2.7
2023-02-08T10:15:49.847Z,2.8
2023-02-08T10:16:49.853Z,2.7
2023-02-08T10:17:49.845Z,2.7
2023-02-08T10:18:49.840Z,2.7
2023-02-08T10:19:49.837Z,2.8
2023-02-08T10:20:49.868Z,2.7
2023-02-08T10:21:49.840Z,2.7
2023-02-08T10:22:49.845Z,2.7
2023-02-08T10:23:49.835Z,2.8
2023-02-08T10:24:49.862Z,2.8
2023-02-08T10:25:49.829Z,2.8
2023-02-08T10:26:49.858Z,2.8
2023-02-08T10:27:49.995Z,2.8
2023-02-08T10:28:52.219Z,2.8
2023-02-08T10:29:49.858Z,2.8
2023-02-08T10:30:49.920Z,2.7
2023-02-08T10:31:49.862Z,2.8
2023-02-08T10:32:49.853Z,2.7
2023-02-08T10:33:49.850Z,2.6
2023-02-08T10:34:49.852Z,2.7
2023-02-08T10:35:49.846Z,2.7
2023-02-08T10:36:49.843Z,2.7
2023-02-08T10:37:49.869Z,2.7
2023-02-08T10:38:49.836Z,2.7
2023-02-08T10:39:49.840Z,2.8
2023-02-08T10:40:49.895Z,2.8
2023-02-08T10:41:49.850Z,2.8
2023-02-08T10:42:49.865Z,2.8
2023-02-08T10:43:49.855Z,2.8
2023-02-08T10:44:49.829Z,2.8
2023-02-08T10:45:49.854Z,2.8
2023-02-08T10:46:49.848Z,2.8
2023-02-08T10:47:49.831Z,2.8
2023-02-08T10:48:49.829Z,2.7
2023-02-08T10:49:49.850Z,2.7
2023-02-08T10:50:49.863Z,2.6
2023-02-08T10:51:49.890Z,2.6
2023-02-08T10:52:49.862Z,2.7
2023-02-08T10:53:49.859Z,2.6
2023-02-08T10:54:49.827Z,2.6
2023-02-08T10:55:49.838Z,2.6
2023-02-08T10:56:49.840Z,2.6
2023-02-08T10:57:49.853Z,2.6
2023-02-08T10:58:49.853Z,2.6
2023-02-08T10:59:49.847Z,2.6
2023-02-08T11:00:49.919Z,2.6
2023-02-08T11:01:49.853Z,2.8
2023-02-08T11:02:49.871Z,2.8
2023-02-08T11:03:49.916Z,2.9
2023-02-08T11:04:49.834Z,2.8
2023-02-08T11:05:49.834Z,2.7
2023-02-08T11:06:49.851Z,2.8
2023-02-08T11:07:49.881Z,2.7
2023-02-08T11:08:49.850Z,2.7
2023-02-08T11:09:49.826Z,2.8
2023-02-08T11:10:49.843Z,2.8
2023-02-08T11:11:49.840Z,2.9
2023-02-08T11:12:49.858Z,2.9
2023-02-08T11:13:49.822Z,2.6
2023-02-08T11:14:49.831Z,2.7
2023-02-08T11:15:49.833Z,2.6
2023-02-08T11:16:49.981Z,2.6
2023-02-08T11:17:49.888Z,2.6
2023-02-08T11:18:49.829Z,2.5
2023-02-08T11:19:49.836Z,2.6
2023-02-08T11:20:49.836Z,2.5
2023-02-08T11:21:49.837Z,2.6
2023-02-08T11:22:49.852Z,2.6
2023-02-08T11:23:49.850Z,2.6
2023-02-08T11:24:49.851Z,2.6
2023-02-08T11:25:49.829Z,2.5
2023-02-08T11:26:49.866Z,2.5
2023-02-08T11:27:49.880Z,2.5
2023-02-08T11:28:49.842Z,2.5
2023-02-08T11:29:49.889Z,2.5
2023-02-08T11:30:49.860Z,2.5
2023-02-08T11:31:49.872Z,2.6
2023-02-08T11:32:49.840Z,2.5
2023-02-08T11:33:49.834Z,2.4
2023-02-08T11:34:49.826Z,2.5
2023-02-08T11:35:49.829Z,2.5
2023-02-08T11:36:49.832Z,2.5
2023-02-08T11:37:49.844Z,2.5
2023-02-08T11:38:49.832Z,2.5
2023-02-08T11:39:49.850Z,2.6
2023-02-08T11:40:49.838Z,2.5
2023-02-08T11:41:49.827Z,2.4
2023-02-08T11:42:49.844Z,2.5
2023-02-08T11:43:49.844Z,2.5
2023-02-08T11:44:49.837Z,2.5
2023-02-08T11:45:49.890Z,2.4
2023-02-08T11:46:49.844Z,2.4
2023-02-08T11:47:49.844Z,2.5
2023-02-08T11:48:49.830Z,2.6
2023-02-08T11:49:49.840Z,2.6
2023-02-08T11:50:49.835Z,2.5
2023-02-08T11:51:49.819Z,2.6
2023-02-08T11:52:49.836Z,2.7
2023-02-08T11:53:49.879Z,2.6
2023-02-08T11:54:49.834Z,2.5
2023-02-08T11:55:49.844Z,2.6
2023-02-08T11:56:49.890Z,2.6
2023-02-08T11:57:49.835Z,2.7
2023-02-08T11:58:49.827Z,2.7
2023-02-08T11:59:49.838Z,2.7
2023-02-08T12:00:49.824Z,2.7
2023-02-08T12:01:49.833Z,2.6
2023-02-08T12:02:49.830Z,2.5
2023-02-08T12:03:49.922Z,2.5
2023-02-08T12:04:49.847Z,2.5
2023-02-08T12:05:49.827Z,2.5
2023-02-08T12:06:49.837Z,2.6
2023-02-08T12:07:49.830Z,2.6
2023-02-08T12:08:49.843Z,2.6
2023-02-08T12:09:49.827Z,2.6
2023-02-08T12:10:49.842Z,2.6
2023-02-08T12:11:49.853Z,2.6
2023-02-08T12:12:49.833Z,2.7
2023-02-08T12:13:49.849Z,2.6
2023-02-08T12:14:49.847Z,2.6
2023-02-08T12:15:58.353Z,2.6
2023-02-08T12:16:49.832Z,2.6
2023-02-08T12:17:49.850Z,2.6
2023-02-08T12:18:49.831Z,2.6
2023-02-08T12:19:49.861Z,2.6
2023-02-08T12:20:49.865Z,2.6
2023-02-08T12:21:49.829Z,2.5
2023-02-08T12:22:49.839Z,2.7
2023-02-08T12:23:49.823Z,2.7
2023-02-08T12:24:49.854Z,2.5
2023-02-08T12:25:49.847Z,2.5
2023-02-08T12:26:49.834Z,2.5
2023-02-08T12:27:49.859Z,2.5
2023-02-08T12:28:49.833Z,2.5
2023-02-08T12:29:49.830Z,2.6
2023-02-08T12:30:49.968Z,2.5
2023-02-08T12:31:49.889Z,2.6
2023-02-08T12:32:49.865Z,2.6
2023-02-08T12:33:49.834Z,2.7
2023-02-08T12:34:49.844Z,2.6
2023-02-08T12:36:03.214Z,2.6
2023-02-08T12:36:49.825Z,2.7
2023-02-08T12:37:49.845Z,2.6
2023-02-08T12:38:49.828Z,2.5
2023-02-08T12:39:49.820Z,2.5
2023-02-08T12:40:49.829Z,2.6
2023-02-08T12:41:49.851Z,2.7
2023-02-08T12:42:49.831Z,2.6
2023-02-08T12:43:49.825Z,2.6
2023-02-08T12:44:49.830Z,2.5
2023-02-08T12:45:49.828Z,2.5
2023-02-08T12:46:49.858Z,2.6
2023-02-08T12:48:03.453Z,2.7
2023-02-08T12:48:49.828Z,2.6
2023-02-08T12:49:49.848Z,2.5
2023-02-08T12:50:49.831Z,2.5
2023-02-08T12:51:49.837Z,2.5
2023-02-08T12:52:49.838Z,2.5
2023-02-08T12:53:49.857Z,2.5
2023-02-08T12:54:49.833Z,2.5
2023-02-08T12:55:49.860Z,2.5
2023-02-08T12:57:01.687Z,2.6
2023-02-08T12:57:49.824Z,2.6
2023-02-08T12:58:49.845Z,2.5
2023-02-08T12:59:49.846Z,2.5
2023-02-08T13:00:49.896Z,2.5
2023-02-08T13:01:49.850Z,2.6
2023-02-08T13:02:49.853Z,2.6
2023-02-08T13:03:49.827Z,2.7
2023-02-08T13:04:49.847Z,2.6
2023-02-08T13:06:01.674Z,2.6
2023-02-08T13:06:49.812Z,2.7
2023-02-08T13:07:49.832Z,2.6
2023-02-08T13:08:49.816Z,2.6
2023-02-08T13:09:49.832Z,2.6
2023-02-08T13:11:49.824Z,2.6
2023-02-08T13:12:49.823Z,2.5
2023-02-08T13:13:49.827Z,2.6
2023-02-08T13:14:49.825Z,2.6
2023-02-08T13:15:49.852Z,2.5
2023-02-08T13:16:49.819Z,2.5
2023-02-08T13:17:49.835Z,2.5
2023-02-08T13:18:49.815Z,2.6
2023-02-08T13:19:59.731Z,2.6
2023-02-08T13:20:49.830Z,2.6
2023-02-08T13:21:49.834Z,2.5
2023-02-08T13:22:49.920Z,2.5
2023-02-08T13:23:53.024Z,2.5
2023-02-08T13:24:55.262Z,2.4
2023-02-08T13:25:49.837Z,2.4
2023-02-08T13:26:49.848Z,2.5
2023-02-08T13:27:49.914Z,2.5
2023-02-08T13:28:49.819Z,2.5
2023-02-08T13:29:49.829Z,2.5
2023-02-08T13:30:49.938Z,2.5
2023-02-08T13:31:49.970Z,2.5
2023-02-08T13:32:49.823Z,2.5
2023-02-08T13:34:00.809Z,2.5
2023-02-08T13:34:49.825Z,2.5
2023-02-08T13:35:49.827Z,2.5
2023-02-08T13:36:49.836Z,2.5
2023-02-08T13:37:49.848Z,2.5
2023-02-08T13:38:49.819Z,2.4
2023-02-08T13:39:49.829Z,2.5
2023-02-08T13:40:49.833Z,2.5
2023-02-08T13:41:49.844Z,2.5
2023-02-08T13:42:49.823Z,2.5
2023-02-08T13:43:49.828Z,2.5
2023-02-08T13:44:49.826Z,2.5
2023-02-08T13:45:49.824Z,2.5
2023-02-08T13:46:49.840Z,2.5
2023-02-08T13:47:49.833Z,2.6
2023-02-08T13:48:49.830Z,2.6
2023-02-08T13:49:49.847Z,2.5
2023-02-08T13:50:49.860Z,2.6
2023-02-08T13:51:49.829Z,2.6
2023-02-08T13:52:49.845Z,2.6
2023-02-08T13:53:49.875Z,2.6
2023-02-08T13:54:49.886Z,2.5
2023-02-08T13:55:49.828Z,2.5
2023-02-08T13:56:49.828Z,2.5